createdAt,value
2022-09-20T00:01:21.107Z,101018.16
2022-09-20T00:03:54.446Z,101020.88
2022-09-20T00:06:24.266Z,101023.56
2022-09-20T00:08:51.581Z,101028.97
2022-09-20T00:11:23.995Z,101028.97
2022-09-20T00:13:53.232Z,101027.13
2022-09-20T00:16:23.779Z,101026.28
2022-09-20T00:18:53.041Z,101025.44
2022-09-20T00:21:23.382Z,101025.56
2022-09-20T00:23:52.667Z,101021.88
2022-09-20T00:26:20.252Z,101032.84
2022-09-20T00:28:47.734Z,101043.50
2022-09-20T00:31:16.034Z,101039.06
2022-09-20T00:34:02.323Z,101037.22
2022-09-20T00:36:30.204Z,101031.81
2022-09-20T00:38:59.600Z,101039.94
2022-09-20T00:41:28.427Z,101044.47
2022-09-20T00:43:56.012Z,101042.63
2022-09-20T00:46:37.672Z,101044.66
2022-09-20T00:49:20.461Z,101034.69
2022-09-20T00:51:52.430Z,101039.25
2022-09-20T00:54:21.533Z,101043.63
2022-09-20T00:56:49.477Z,101035.53
2022-09-20T00:59:27.289Z,101046.50
2022-09-20T01:02:00.990Z,101043.81
2022-09-20T01:04:29.873Z,101043.81
2022-09-20T01:07:02.338Z,101033.00
2022-09-20T01:09:29.603Z,101033.00
2022-09-20T01:12:02.159Z,101041.94
2022-09-20T01:14:29.851Z,101034.84
2022-09-20T01:17:02.334Z,101041.09
2022-09-20T01:20:04.474Z,101038.41
2022-09-20T01:22:55.558Z,101042.13
2022-09-20T01:26:00.295Z,101042.97
2022-09-20T01:28:29.253Z,101049.34
2022-09-20T01:31:21.140Z,101048.38
2022-09-20T01:33:59.875Z,101048.50
2022-09-20T01:36:34.347Z,101059.31
2022-09-20T01:39:11.066Z,101048.50
2022-09-20T01:41:56.970Z,101056.59
2022-09-20T01:44:56.373Z,101059.31
2022-09-20T01:47:38.059Z,101052.22
2022-09-20T01:50:14.097Z,101054.91
2022-09-20T01:52:50.259Z,101054.06
2022-09-20T01:55:28.739Z,101058.47
2022-09-20T01:58:08.046Z,101068.44
2022-09-20T02:00:53.742Z,101066.72
2022-09-20T02:03:49.641Z,101075.69
2022-09-20T02:06:46.029Z,101069.44
2022-09-20T02:09:31.837Z,101074.84
2022-09-20T02:12:33.392Z,101077.53
2022-09-20T02:15:31.692Z,101080.25
2022-09-20T02:18:45.318Z,101080.38
2022-09-20T02:21:36.785Z,101074.00
2022-09-20T02:24:30.120Z,101071.44
2022-09-20T02:27:18.324Z,101079.41
2022-09-20T02:29:56.634Z,101086.66
2022-09-20T02:32:32.926Z,101086.78
2022-09-20T02:35:32.803Z,101082.22
2022-09-20T02:38:25.686Z,101081.38
2022-09-20T02:41:07.960Z,101081.38
2022-09-20T02:43:52.969Z,101084.09
2022-09-20T02:46:30.476Z,101094.91
2022-09-20T02:49:19.461Z,101086.09
2022-09-20T02:51:56.906Z,101088.66
2022-09-20T02:54:46.108Z,101093.03
2022-09-20T02:57:21.397Z,101096.75
2022-09-20T02:59:58.584Z,101104.84
2022-09-20T03:02:52.130Z,101104.00
2022-09-20T03:05:24.058Z,101102.16
2022-09-20T03:08:02.908Z,101108.56
2022-09-20T03:10:50.438Z,101105.88
2022-09-20T03:13:43.528Z,101110.41
2022-09-20T03:16:19.794Z,101113.13
2022-09-20T03:18:57.113Z,101106.88
2022-09-20T03:22:04.493Z,101113.97
2022-09-20T03:25:02.613Z,101114.97
2022-09-20T03:27:36.823Z,101110.56
2022-09-20T03:30:18.984Z,101106.88
2022-09-20T03:32:55.190Z,101108.56
2022-09-20T03:35:59.893Z,101107.00
2022-09-20T03:38:53.156Z,101109.72
2022-09-20T03:41:44.937Z,101120.50
2022-09-20T03:44:48.354Z,101119.66
2022-09-20T03:47:34.003Z,101110.56
2022-09-20T03:50:19.315Z,101108.88
2022-09-20T03:52:57.673Z,101104.31
2022-09-20T03:55:45.798Z,101111.41
2022-09-20T03:58:50.553Z,101109.72
2022-09-20T04:01:42.438Z,101101.59
2022-09-20T04:04:34.719Z,101098.06
2022-09-20T04:07:09.331Z,101093.50
2022-09-20T04:09:39.520Z,101087.25
2022-09-20T04:12:42.247Z,101086.41
2022-09-20T04:15:38.431Z,101085.56
2022-09-20T04:18:14.484Z,101087.25
2022-09-20T04:21:08.343Z,101094.50
2022-09-20T04:24:02.299Z,101098.22
2022-09-20T04:26:32.700Z,101098.06
2022-09-20T04:29:08.860Z,101101.78
2022-09-20T04:31:54.072Z,101104.47
2022-09-20T04:35:11.948Z,101097.38
2022-09-20T04:37:41.842Z,101103.63
2022-09-20T04:40:31.410Z,101106.31
2022-09-20T04:43:07.956Z,101108.19
2022-09-20T04:46:13.017Z,101112.72
2022-09-20T04:49:04.858Z,101116.28
2022-09-20T04:51:51.216Z,101104.75
2022-09-20T04:54:57.986Z,101110.16
2022-09-20T04:57:38.105Z,101109.16
2022-09-20T05:00:17.422Z,101110.16
2022-09-20T05:02:47.508Z,101115.56
2022-09-20T05:05:41.281Z,101123.69
2022-09-20T05:08:21.733Z,101129.94
2022-09-20T05:11:10.363Z,101124.69
2022-09-20T05:14:01.094Z,101126.53
2022-09-20T05:17:07.193Z,101133.78
2022-09-20T05:19:56.015Z,101140.19
2022-09-20T05:22:26.321Z,101145.44
2022-09-20T05:25:19.813Z,101145.59
2022-09-20T05:27:57.291Z,101141.03
2022-09-20T05:30:43.672Z,101133.09
2022-09-20T05:33:25.984Z,101134.78
2022-09-20T05:36:34.452Z,101141.19
2022-09-20T05:39:27.973Z,101143.88
2022-09-20T05:42:00.277Z,101143.88
2022-09-20T05:44:45.761Z,101146.59
2022-09-20T05:47:24.972Z,101143.03
2022-09-20T05:50:13.391Z,101146.59
2022-09-20T05:52:51.381Z,101150.28
2022-09-20T05:55:39.337Z,101148.44
2022-09-20T05:58:45.202Z,101155.69
2022-09-20T06:01:22.782Z,101159.25
2022-09-20T06:04:08.165Z,101155.69
2022-09-20T06:06:55.044Z,101160.09
2022-09-20T06:09:24.978Z,101164.66
2022-09-20T06:12:01.699Z,101162.78
2022-09-20T06:14:47.442Z,101159.25
2022-09-20T06:17:20.869Z,101162.97
2022-09-20T06:20:08.717Z,101168.38
2022-09-20T06:22:45.281Z,101171.91
2022-09-20T06:25:37.048Z,101178.31
2022-09-20T06:28:04.419Z,101175.75
2022-09-20T06:30:37.134Z,101174.06
2022-09-20T06:33:17.963Z,101181.44
2022-09-20T06:36:38.901Z,101183.28
2022-09-20T06:39:54.385Z,101185.31
2022-09-20T06:42:25.303Z,101180.34
2022-09-20T06:44:54.496Z,101180.66
2022-09-20T06:47:23.207Z,101189.75
2022-09-20T06:49:50.487Z,101192.59
2022-09-20T06:52:23.017Z,101197.84
2022-09-20T06:54:53.869Z,101192.59
2022-09-20T06:57:30.373Z,101196.28
2022-09-20T06:59:57.697Z,101197.28
2022-09-20T07:02:25.373Z,101206.94
2022-09-20T07:04:59.229Z,101207.09
2022-09-20T07:07:26.681Z,101212.34
2022-09-20T07:09:53.940Z,101203.38
2022-09-20T07:12:21.248Z,101213.22
2022-09-20T07:14:50.628Z,101208.78
2022-09-20T07:17:17.899Z,101219.59
2022-09-20T07:19:45.141Z,101216.75
2022-09-20T07:22:12.454Z,101221.16
2022-09-20T07:24:41.178Z,101215.91
2022-09-20T07:27:11.271Z,101220.31
2022-09-20T07:29:38.562Z,101213.06
2022-09-20T07:32:06.061Z,101223.00
2022-09-20T07:34:33.350Z,101227.41
2022-09-20T07:37:00.579Z,101226.56
2022-09-20T07:39:28.172Z,101229.94
2022-09-20T07:41:55.422Z,101234.50
2022-09-20T07:44:25.719Z,101226.28
2022-09-20T07:46:56.058Z,101227.97
2022-09-20T07:49:24.395Z,101231.50
2022-09-20T07:51:53.068Z,101231.50
2022-09-20T07:54:21.293Z,101233.22
2022-09-20T07:56:48.826Z,101230.50
2022-09-20T07:59:16.168Z,101241.31
2022-09-20T08:01:43.867Z,101249.28
2022-09-20T08:04:11.722Z,101247.56
2022-09-20T08:06:41.045Z,101251.13
2022-09-20T08:09:11.067Z,101246.59
2022-09-20T08:11:40.991Z,101249.28
2022-09-20T08:14:13.202Z,101252.00
2022-09-20T08:16:47.353Z,101252.84
2022-09-20T08:19:23.050Z,101260.94
2022-09-20T08:21:53.895Z,101261.63
2022-09-20T08:24:21.905Z,101256.38
2022-09-20T08:26:49.148Z,101266.50
2022-09-20T08:29:16.670Z,101267.66
2022-09-20T08:31:44.281Z,101255.91
2022-09-20T08:34:14.005Z,101260.84
2022-09-20T08:36:47.464Z,101271.09
2022-09-20T08:42:28.159Z,101266.41
2022-09-20T08:45:00.901Z,101265.97
2022-09-20T08:47:35.775Z,101272.66
2022-09-20T08:50:09.483Z,101267.81
2022-09-20T08:52:40.281Z,101258.44
2022-09-20T08:55:21.865Z,101263.41
2022-09-20T08:57:55.256Z,101263.94
2022-09-20T09:00:30.539Z,101264.53
2022-09-20T09:03:01.095Z,101267.78
2022-09-20T09:05:33.539Z,101265.81
2022-09-20T09:08:22.206Z,101266.50
2022-09-20T09:10:54.728Z,101265.53
2022-09-20T09:13:43.476Z,101268.09
2022-09-20T09:16:22.495Z,101259.00
2022-09-20T09:18:51.823Z,101261.56
2022-09-20T09:21:24.970Z,101257.88
2022-09-20T09:24:01.141Z,101257.72
2022-09-20T09:26:35.205Z,101254.16
2022-09-20T09:29:24.526Z,101250.47
2022-09-20T09:31:54.745Z,101260.28
2022-09-20T09:34:38.772Z,101256.72
2022-09-20T09:37:06.132Z,101253.03
2022-09-20T09:39:38.238Z,101248.47
2022-09-20T09:42:23.855Z,101255.59
2022-09-20T09:44:51.281Z,101252.88
2022-09-20T09:47:37.865Z,101252.88
2022-09-20T09:50:09.688Z,101252.88
2022-09-20T09:52:37.327Z,101245.78
2022-09-20T09:55:06.012Z,101237.81
2022-09-20T09:57:36.639Z,101242.38
2022-09-20T10:00:21.558Z,101233.97
2022-09-20T10:03:04.357Z,101234.81
2022-09-20T10:05:34.671Z,101231.28
2022-09-20T10:08:31.296Z,101230.28
2022-09-20T10:11:21.909Z,101225.88
2022-09-20T10:14:17.722Z,101223.19
2022-09-20T10:16:51.410Z,101220.47
2022-09-20T10:19:43.190Z,101222.16
2022-09-20T10:23:06.827Z,101223.91
2022-09-20T10:25:36.578Z,101220.31
2022-09-20T10:28:12.872Z,101212.22
2022-09-20T10:31:35.683Z,101207.69
2022-09-20T10:34:27.195Z,101205.97
2022-09-20T10:36:58.109Z,101211.38
2022-09-20T10:39:48.582Z,101205.13
2022-09-20T10:42:37.303Z,101214.06
2022-09-20T10:45:50.824Z,101214.06
2022-09-20T10:48:18.142Z,101203.28
2022-09-20T10:50:51.759Z,101213.22
2022-09-20T10:53:39.745Z,101205.13
2022-09-20T10:56:30.837Z,101202.44
2022-09-20T10:59:38.606Z,101203.59
2022-09-20T11:02:22.396Z,101199.03
2022-09-20T11:05:32.259Z,101203.59
2022-09-20T11:08:05.345Z,101206.13
2022-09-20T11:10:45.851Z,101198.19
2022-09-20T11:13:30.467Z,101195.50
2022-09-20T11:16:05.834Z,101190.22
2022-09-20T11:18:39.263Z,101188.38
2022-09-20T11:21:28.953Z,101191.91
2022-09-20T11:24:05.467Z,101185.81
2022-09-20T11:26:44.892Z,101186.66
2022-09-20T11:29:28.266Z,101180.59
2022-09-20T11:32:19.124Z,101175.19
2022-09-20T11:34:57.383Z,101166.19
2022-09-20T11:37:30.881Z,101175.19
2022-09-20T11:40:10.038Z,101167.22
2022-09-20T11:42:41.299Z,101169.06
2022-09-20T11:45:12.514Z,101157.41
2022-09-20T11:47:55.012Z,101162.94
2022-09-20T11:50:33.107Z,101151.44
2022-09-20T11:53:17.497Z,101149.56
2022-09-20T11:55:54.395Z,101135.50
2022-09-20T11:58:22.434Z,101140.91
2022-09-20T12:00:54.513Z,101127.41
2022-09-20T12:03:54.627Z,101140.06
2022-09-20T12:06:35.262Z,101132.13
2022-09-20T12:09:06.529Z,101130.41
2022-09-20T12:11:38.951Z,101120.47
2022-09-20T12:14:18.396Z,101122.47
2022-09-20T12:16:48.642Z,101116.22
2022-09-20T12:19:32.345Z,101115.50
2022-09-20T12:22:04.173Z,101114.81
2022-09-20T12:24:36.503Z,101113.81
2022-09-20T12:27:29.273Z,101107.56
2022-09-20T12:30:22.005Z,101105.03
2022-09-20T12:32:52.582Z,101105.03
2022-09-20T12:35:39.147Z,101098.63
2022-09-20T12:38:21.463Z,101093.22
2022-09-20T12:41:10.318Z,101096.09
2022-09-20T12:43:49.703Z,101094.22
2022-09-20T12:46:30.018Z,101087.81
2022-09-20T12:49:35.969Z,101091.38
2022-09-20T12:52:22.365Z,101079.72
2022-09-20T12:54:56.324Z,101084.13
2022-09-20T12:57:32.376Z,101080.41
2022-09-20T13:00:02.886Z,101084.97
2022-09-20T13:02:53.000Z,101082.13
2022-09-20T13:05:33.013Z,101075.88
2022-09-20T13:08:20.874Z,101077.59
2022-09-20T13:10:53.798Z,101068.47
2022-09-20T13:13:42.837Z,101064.09
2022-09-20T13:16:29.267Z,101060.38
2022-09-20T13:19:12.260Z,101055.84
2022-09-20T13:22:08.066Z,101060.22
2022-09-20T13:24:45.116Z,101062.91
2022-09-20T13:27:19.776Z,101057.53
2022-09-20T13:29:47.367Z,101051.16
2022-09-20T13:32:28.955Z,101053.00
2022-09-20T13:35:14.713Z,101055.69
2022-09-20T13:37:45.005Z,101048.44
2022-09-20T13:40:19.973Z,101042.03
2022-09-20T13:42:50.308Z,101041.03
2022-09-20T13:45:19.463Z,101046.59
2022-09-20T13:47:55.080Z,101038.50
2022-09-20T13:50:33.653Z,101039.19
2022-09-20T13:53:27.909Z,101040.03
2022-09-20T13:56:01.734Z,101034.63
2022-09-20T13:58:32.051Z,101031.09
2022-09-20T14:01:03.260Z,101024.00
2022-09-20T14:03:33.460Z,101017.59
2022-09-20T14:06:04.320Z,101023.81
2022-09-20T14:08:43.334Z,101021.13
2022-09-20T14:11:17.713Z,101024.72
2022-09-20T14:13:48.774Z,101020.16
2022-09-20T14:16:18.817Z,101019.31
2022-09-20T14:18:48.039Z,101008.50
2022-09-20T14:21:22.742Z,101003.09
2022-09-20T14:23:58.286Z,101006.66
2022-09-20T14:26:36.694Z,101005.66
2022-09-20T14:29:34.858Z,101001.25
2022-09-20T14:32:11.672Z,101000.25
2022-09-20T14:34:40.791Z,100997.56
2022-09-20T14:37:25.762Z,101000.25
2022-09-20T14:40:18.789Z,100988.59
2022-09-20T14:42:48.212Z,100992.16
2022-09-20T14:45:36.831Z,100990.47
2022-09-20T14:48:26.776Z,100991.31
2022-09-20T14:51:18.911Z,100984.91
2022-09-20T14:53:49.763Z,100985.91
2022-09-20T14:56:27.104Z,100983.22
2022-09-20T14:59:19.365Z,100982.34
2022-09-20T15:01:57.239Z,100979.66
2022-09-20T15:04:28.155Z,100984.06
2022-09-20T15:06:57.021Z,100980.63
2022-09-20T15:09:24.399Z,100976.97
2022-09-20T15:12:12.271Z,100976.97
2022-09-20T15:14:41.445Z,100977.81
2022-09-20T15:17:20.301Z,100976.97
2022-09-20T15:19:49.303Z,100978.66
2022-09-20T15:22:16.720Z,100975.09
2022-09-20T15:24:44.211Z,100974.25
2022-09-20T15:27:12.363Z,100968.03
2022-09-20T15:29:39.992Z,100972.41
2022-09-20T15:32:10.464Z,100974.09
2022-09-20T15:34:38.361Z,100971.56
2022-09-20T15:37:05.640Z,100973.25
2022-09-20T15:39:32.942Z,100969.72
2022-09-20T15:42:00.333Z,100969.72
2022-09-20T15:44:27.582Z,100969.72
2022-09-20T15:46:55.072Z,100968.88
2022-09-20T15:49:22.481Z,100972.41
2022-09-20T15:51:50.490Z,100967.00
2022-09-20T15:54:17.991Z,100967.84
2022-09-20T15:56:45.286Z,100970.56
2022-09-20T15:59:13.382Z,100963.47
2022-09-20T16:01:42.867Z,100962.47
2022-09-20T16:04:15.701Z,100966.16
2022-09-20T16:06:44.041Z,100961.75
2022-09-20T16:09:11.884Z,100955.38
2022-09-20T16:11:39.928Z,100963.47
2022-09-20T16:14:07.731Z,100959.03
2022-09-20T16:16:39.980Z,100957.22
2022-09-20T16:19:23.790Z,100955.38
2022-09-20T16:21:57.843Z,100957.06
2022-09-20T16:24:28.621Z,100954.34
2022-09-20T16:26:56.682Z,100958.75
2022-09-20T16:29:25.986Z,100954.19
2022-09-20T16:31:54.837Z,100952.38
2022-09-20T16:34:32.218Z,100953.22
2022-09-20T16:37:10.359Z,100955.91
2022-09-20T16:39:38.109Z,100954.06
2022-09-20T16:42:07.495Z,100957.63
2022-09-20T16:44:39.588Z,100952.25
2022-09-20T16:47:10.528Z,100956.75
2022-09-20T16:49:38.455Z,100953.09
2022-09-20T16:52:07.710Z,100955.78
2022-09-20T16:54:35.664Z,100954.78
2022-09-20T16:57:03.265Z,100954.78
2022-09-20T16:59:30.884Z,100956.50
2022-09-20T17:01:58.398Z,100961.03
2022-09-20T17:04:25.740Z,100956.50
2022-09-20T17:06:53.308Z,100960.19
2022-09-20T17:09:20.957Z,100962.88
2022-09-20T17:11:50.188Z,100964.59
2022-09-20T17:14:20.349Z,100961.91
2022-09-20T17:16:48.472Z,100972.69
2022-09-20T17:19:18.744Z,100966.41
2022-09-20T17:21:50.543Z,100971.69
2022-09-20T17:24:22.590Z,100974.38
2022-09-20T17:26:51.180Z,100980.63
2022-09-20T17:29:20.144Z,100983.16
2022-09-20T17:31:55.102Z,100979.63
2022-09-20T17:34:24.580Z,100980.47
2022-09-20T17:36:54.156Z,100981.47
2022-09-20T17:39:21.480Z,100988.56
2022-09-20T17:41:49.704Z,100989.41
2022-09-20T17:44:17.712Z,100995.69
2022-09-20T17:46:48.002Z,100998.38
2022-09-20T17:49:21.034Z,101001.09
2022-09-20T17:51:49.820Z,101002.91
2022-09-20T17:54:18.493Z,101001.09
2022-09-20T17:56:50.650Z,101002.06
2022-09-20T17:59:19.863Z,101003.78
2022-09-20T18:01:50.167Z,101002.91
2022-09-20T18:04:20.842Z,101007.34
2022-09-20T18:06:50.251Z,101007.47
2022-09-20T18:09:23.362Z,101011.00
2022-09-20T18:11:53.071Z,101011.00
2022-09-20T18:14:23.255Z,101020.00
2022-09-20T18:16:56.262Z,101013.72
2022-09-20T18:19:23.545Z,101019.13
2022-09-20T18:21:50.799Z,101022.69
2022-09-20T18:24:18.099Z,101016.28
2022-09-20T18:26:45.442Z,101022.53
2022-09-20T18:29:16.716Z,101035.88
2022-09-20T18:31:48.429Z,101034.16
2022-09-20T18:34:20.244Z,101041.25
2022-09-20T18:36:54.147Z,101037.72
2022-09-20T18:39:35.362Z,101044.97
2022-09-20T18:42:03.508Z,101044.81
2022-09-20T18:44:33.651Z,101050.22
2022-09-20T18:47:02.775Z,101053.78
2022-09-20T18:49:30.579Z,101057.47
2022-09-20T18:51:58.093Z,101065.44
2022-09-20T18:54:25.560Z,101072.69
2022-09-20T18:56:53.949Z,101066.28
2022-09-20T18:59:26.622Z,101074.38
2022-09-20T19:02:15.498Z,101079.78
2022-09-20T19:05:18.382Z,101084.34
2022-09-20T19:08:00.351Z,101080.63
2022-09-20T19:10:54.585Z,101078.94
2022-09-20T19:13:49.741Z,101085.19
2022-09-20T19:16:20.109Z,101090.41
2022-09-20T19:19:24.309Z,101085.88
2022-09-20T19:22:36.524Z,101085.88
2022-09-20T19:25:25.231Z,101095.81
2022-09-20T19:27:53.529Z,101102.91
2022-09-20T19:30:27.355Z,101104.63
2022-09-20T19:33:34.387Z,101104.75
2022-09-20T19:36:03.194Z,101109.03
2022-09-20T19:39:14.754Z,101102.78
2022-09-20T19:42:08.108Z,101120.69
2022-09-20T19:44:41.059Z,101108.03
2022-09-20T19:47:17.246Z,101109.88
2022-09-20T19:49:50.437Z,101122.38
2022-09-20T19:52:18.346Z,101114.25
2022-09-20T19:54:46.715Z,101116.97
2022-09-20T19:57:23.096Z,101115.13
2022-09-20T19:59:51.046Z,101117.81
2022-09-20T20:02:18.904Z,101127.63
2022-09-20T20:04:46.668Z,101130.34
2022-09-20T20:07:52.567Z,101134.91
2022-09-20T20:10:50.778Z,101135.75
2022-09-20T20:14:00.941Z,101139.28
2022-09-20T20:16:53.377Z,101132.03
2022-09-20T20:19:51.307Z,101137.44
2022-09-20T20:22:38.378Z,101141.84
2022-09-20T20:25:26.416Z,101141.84
2022-09-20T20:27:53.688Z,101139.13
2022-09-20T20:30:20.898Z,101142.69
2022-09-20T20:32:48.324Z,101152.50
2022-09-20T20:35:22.976Z,101144.41
2022-09-20T20:37:50.235Z,101156.91
2022-09-20T20:40:17.596Z,101153.34
2022-09-20T20:42:47.100Z,101152.50
2022-09-20T20:45:14.602Z,101152.50
2022-09-20T20:47:42.662Z,101157.75
2022-09-20T20:50:12.759Z,101162.31
2022-09-20T20:52:40.147Z,101164.00
2022-09-20T20:55:10.026Z,101163.16
2022-09-20T20:57:40.099Z,101160.44
2022-09-20T21:00:08.183Z,101166.69
2022-09-20T21:02:35.477Z,101170.41
2022-09-20T21:05:04.235Z,101173.78
2022-09-20T21:07:32.081Z,101165.84
2022-09-20T21:09:59.387Z,101173.78
2022-09-20T21:12:26.897Z,101172.94
2022-09-20T21:14:54.120Z,101181.88
2022-09-20T21:17:21.368Z,101173.78
2022-09-20T21:19:48.841Z,101184.59
2022-09-20T21:22:17.856Z,101188.13
2022-09-20T21:24:50.410Z,101190.00
2022-09-20T21:27:17.706Z,101195.41
2022-09-20T21:29:44.948Z,101191.00
2022-09-20T21:32:12.256Z,101198.94
2022-09-20T21:34:39.573Z,101202.66
2022-09-20T21:37:07.280Z,101206.19
2022-09-20T21:39:34.617Z,101209.91
2022-09-20T21:42:04.429Z,101208.91
2022-09-20T21:44:32.418Z,101208.06
2022-09-20T21:46:59.758Z,101214.31
2022-09-20T21:49:27.068Z,101222.41
2022-09-20T21:51:54.359Z,101219.69
2022-09-20T21:54:28.670Z,101218.84
2022-09-20T21:56:59.291Z,101217.00
2022-09-20T21:59:26.906Z,101232.22
2022-09-20T22:01:55.180Z,101232.22
2022-09-20T22:04:23.169Z,101230.38
2022-09-20T22:06:50.430Z,101225.81
2022-09-20T22:09:19.194Z,101230.38
2022-09-20T22:11:48.576Z,101234.94
2022-09-20T22:14:19.150Z,101245.75
2022-09-20T22:16:47.964Z,101240.34
2022-09-20T22:19:17.202Z,101235.78
2022-09-20T22:21:47.073Z,101243.88
2022-09-20T22:24:15.447Z,101236.63
2022-09-20T22:26:47.026Z,101233.94
2022-09-20T22:29:15.786Z,101243.03
2022-09-20T22:31:45.685Z,101241.19
2022-09-20T22:34:18.612Z,101252.84
2022-09-20T22:36:46.443Z,101239.31
2022-09-20T22:39:14.189Z,101245.75
2022-09-20T22:41:42.842Z,101244.72
2022-09-20T22:44:11.404Z,101239.31
2022-09-20T22:46:39.431Z,101244.72
2022-09-20T22:49:08.602Z,101252.66
2022-09-20T22:51:36.637Z,101257.22
2022-09-20T22:54:09.983Z,101254.53
2022-09-20T22:56:39.323Z,101259.94
2022-09-20T22:59:09.151Z,101262.63
2022-09-20T23:01:42.845Z,101256.22
2022-09-20T23:04:16.590Z,101261.63
2022-09-20T23:06:49.297Z,101261.63
2022-09-20T23:09:18.864Z,101264.31
2022-09-20T23:11:47.030Z,101265.34
2022-09-20T23:14:20.037Z,101261.63
2022-09-20T23:16:48.309Z,101275.13
2022-09-20T23:19:16.162Z,101269.72
2022-09-20T23:21:44.519Z,101267.03
2022-09-20T23:24:14.083Z,101268.03
2022-09-20T23:26:42.482Z,101267.03
2022-09-20T23:29:11.995Z,101265.34
2022-09-20T23:31:45.574Z,101264.47
2022-09-20T23:34:15.137Z,101274.28
2022-09-20T23:36:42.711Z,101269.88
2022-09-20T23:39:11.733Z,101266.34
2022-09-20T23:41:39.559Z,101265.50
2022-09-20T23:44:09.891Z,101272.59
2022-09-20T23:46:38.176Z,101267.34
2022-09-20T23:49:06.758Z,101273.59
2022-09-20T23:51:35.437Z,101284.41
2022-09-20T23:54:03.411Z,101276.28
2022-09-20T23:56:30.773Z,101275.44
2022-09-20T23:58:58.051Z,101278.16
